createdAt,value
2023-04-14T00:01:56.602Z,98596.41
2023-04-14T00:04:23.116Z,98599.16
2023-04-14T00:06:49.650Z,98591.44
2023-04-14T00:09:16.008Z,98603.53
2023-04-14T00:11:42.436Z,98603.03
2023-04-14T00:14:09.174Z,98608.13
2023-04-14T00:16:36.121Z,98612.81
2023-04-14T00:19:02.930Z,98622.38
2023-04-14T00:21:29.791Z,98617.53
2023-04-14T00:23:56.708Z,98618.88
2023-04-14T00:26:23.136Z,98634.91
2023-04-14T00:28:49.518Z,98630.59
2023-04-14T00:31:16.157Z,98625.91
2023-04-14T00:33:42.575Z,98622.03
2023-04-14T00:36:09.099Z,98619.75
2023-04-14T00:38:35.775Z,98621.56
2023-04-14T00:41:02.245Z,98625.91
2023-04-14T00:43:28.638Z,98630.16
2023-04-14T00:45:55.453Z,98626.13
2023-04-14T00:48:22.325Z,98626.78
2023-04-14T00:50:48.833Z,98627.00
2023-04-14T00:53:15.574Z,98626.66
2023-04-14T00:55:42.924Z,98635.34
2023-04-14T00:58:10.377Z,98639.44
2023-04-14T01:00:37.946Z,98637.16
2023-04-14T01:03:05.522Z,98638.88
2023-04-14T01:05:33.030Z,98641.88
2023-04-14T01:07:59.893Z,98645.34
2023-04-14T01:10:46.125Z,98644.16
2023-04-14T01:13:39.724Z,98641.38
2023-04-14T01:16:23.570Z,98649.47
2023-04-14T01:18:56.990Z,98648.72
2023-04-14T01:21:29.015Z,98652.59
2023-04-14T01:24:16.724Z,98660.44
2023-04-14T01:26:45.400Z,98652.59
2023-04-14T01:29:29.957Z,98651.88
2023-04-14T01:32:10.430Z,98648.00
2023-04-14T01:34:50.554Z,98647.06
2023-04-14T01:37:26.008Z,98639.09
2023-04-14T01:39:53.824Z,98644.63
2023-04-14T01:42:26.493Z,98652.72
2023-04-14T01:44:58.185Z,98654.53
2023-04-14T01:47:27.020Z,98650.50
2023-04-14T01:49:55.629Z,98641.00
2023-04-14T01:52:23.069Z,98640.00
2023-04-14T01:54:52.117Z,98641.22
2023-04-14T01:57:22.576Z,98638.78
2023-04-14T01:59:51.753Z,98648.31
2023-04-14T02:02:20.336Z,98639.25
2023-04-14T02:04:48.724Z,98637.06
2023-04-14T02:07:18.296Z,98633.03
2023-04-14T02:09:45.876Z,98634.88
2023-04-14T02:12:12.764Z,98640.63
2023-04-14T02:14:41.854Z,98644.31
2023-04-14T02:17:11.510Z,98634.84
2023-04-14T02:19:38.795Z,98638.91
2023-04-14T02:22:05.287Z,98641.44
2023-04-14T02:24:31.810Z,98648.16
2023-04-14T02:27:11.630Z,98648.16
2023-04-14T02:29:42.226Z,98645.72
2023-04-14T02:32:14.768Z,98654.88
2023-04-14T02:35:04.886Z,98648.75
2023-04-14T02:37:37.600Z,98649.69
2023-04-14T02:40:12.177Z,98653.34
2023-04-14T02:42:43.268Z,98655.19
2023-04-14T02:45:17.776Z,98656.97
2023-04-14T02:47:47.747Z,98664.09
2023-04-14T02:50:16.588Z,98663.25
2023-04-14T02:52:44.996Z,98659.53
2023-04-14T02:55:12.163Z,98666.63
2023-04-14T02:57:39.946Z,98666.63
2023-04-14T03:00:07.688Z,98674.88
2023-04-14T03:02:36.117Z,98667.16
2023-04-14T03:05:04.963Z,98662.19
2023-04-14T03:07:32.005Z,98669.19
2023-04-14T03:09:58.760Z,98666.56
2023-04-14T03:12:25.762Z,98666.66
2023-04-14T03:14:54.338Z,98664.44
2023-04-14T03:17:21.665Z,98669.94
2023-04-14T03:19:49.680Z,98672.69
2023-04-14T03:22:20.793Z,98679.16
2023-04-14T03:24:47.412Z,98679.38
2023-04-14T03:27:17.107Z,98678.19
2023-04-14T03:29:51.621Z,98682.44
2023-04-14T03:32:19.840Z,98690.38
2023-04-14T03:34:50.610Z,98686.47
2023-04-14T03:37:18.789Z,98690.59
2023-04-14T03:39:47.644Z,98689.06
2023-04-14T03:42:16.913Z,98680.19
2023-04-14T03:44:49.915Z,98686.22
2023-04-14T03:47:16.626Z,98678.09
2023-04-14T03:49:47.175Z,98675.94
2023-04-14T03:52:16.672Z,98679.53
2023-04-14T03:54:45.798Z,98682.50
2023-04-14T03:57:14.337Z,98682.81
2023-04-14T03:59:42.452Z,98677.72
2023-04-14T04:02:10.907Z,98677.50
2023-04-14T04:04:38.292Z,98680.69
2023-04-14T04:07:07.843Z,98674.78
2023-04-14T04:09:36.960Z,98684.63
2023-04-14T04:12:04.889Z,98676.16
2023-04-14T04:14:32.810Z,98678.69
2023-04-14T04:17:03.159Z,98683.75
2023-04-14T04:19:31.509Z,98686.28
2023-04-14T04:22:00.180Z,98681.19
2023-04-14T04:24:30.812Z,98688.16
2023-04-14T04:26:58.520Z,98692.69
2023-04-14T04:29:26.967Z,98703.34
2023-04-14T04:31:55.278Z,98695.56
2023-04-14T04:34:23.784Z,98698.19
2023-04-14T04:36:50.543Z,98699.53
2023-04-14T04:39:18.232Z,98707.44
2023-04-14T04:41:45.958Z,98700.69
2023-04-14T04:44:12.569Z,98697.09
2023-04-14T04:46:51.386Z,98698.88
2023-04-14T04:49:18.304Z,98707.34
2023-04-14T04:51:44.988Z,98706.00
2023-04-14T04:54:11.740Z,98704.22
2023-04-14T04:56:38.474Z,98706.69
2023-04-14T04:59:05.340Z,98719.66
2023-04-14T05:01:31.752Z,98722.00
2023-04-14T05:03:58.212Z,98719.06
2023-04-14T05:06:25.289Z,98718.97
2023-04-14T05:08:53.059Z,98716.63
2023-04-14T05:11:19.703Z,98725.09
2023-04-14T05:13:46.693Z,98718.66
2023-04-14T05:16:13.818Z,98723.66
2023-04-14T05:18:41.398Z,98721.53
2023-04-14T05:21:11.050Z,98725.03
2023-04-14T05:23:38.931Z,98720.59
2023-04-14T05:26:27.033Z,98731.59
2023-04-14T05:28:53.542Z,98726.19
2023-04-14T05:31:20.397Z,98722.72
2023-04-14T05:33:46.788Z,98726.72
2023-04-14T05:36:13.147Z,98727.56
2023-04-14T05:38:42.849Z,98719.25
2023-04-14T05:41:09.664Z,98723.81
2023-04-14T05:43:36.765Z,98723.16
2023-04-14T05:46:03.206Z,98716.41
2023-04-14T05:48:32.211Z,98727.41
2023-04-14T05:50:58.600Z,98726.59
2023-04-14T05:53:25.803Z,98720.44
2023-04-14T05:55:52.577Z,98729.09
2023-04-14T05:58:19.756Z,98724.34
2023-04-14T06:00:46.225Z,98728.66
2023-04-14T06:03:13.117Z,98724.16
2023-04-14T06:05:39.767Z,98720.53
2023-04-14T06:08:06.147Z,98716.97
2023-04-14T06:10:33.064Z,98710.97
2023-04-14T06:12:59.458Z,98715.56
2023-04-14T06:15:28.226Z,98715.06
2023-04-14T06:17:54.721Z,98709.63
2023-04-14T06:20:21.775Z,98699.66
2023-04-14T06:22:48.249Z,98705.78
2023-04-14T06:25:14.861Z,98707.59
2023-04-14T06:27:41.692Z,98706.41
2023-04-14T06:30:08.557Z,98705.97
2023-04-14T06:32:35.126Z,98702.88
2023-04-14T06:35:05.071Z,98698.91
2023-04-14T06:37:32.070Z,98698.22
2023-04-14T06:39:58.455Z,98695.00
2023-04-14T06:42:25.456Z,98693.34
2023-04-14T06:44:52.237Z,98693.13
2023-04-14T06:47:20.090Z,98694.84
2023-04-14T06:49:46.551Z,98687.41
2023-04-14T06:52:13.003Z,98680.66
2023-04-14T06:54:39.341Z,98676.41
2023-04-14T06:57:05.870Z,98674.34
2023-04-14T06:59:32.285Z,98666.38
2023-04-14T07:01:58.958Z,98668.03
2023-04-14T07:04:25.781Z,98662.41
2023-04-14T07:06:52.286Z,98658.50
2023-04-14T07:09:19.368Z,98666.91
2023-04-14T07:11:46.308Z,98658.63
2023-04-14T07:14:12.951Z,98658.16
2023-04-14T07:16:39.477Z,98653.13
2023-04-14T07:19:06.283Z,98653.16
2023-04-14T07:21:32.700Z,98646.81
2023-04-14T07:23:59.550Z,98640.00
2023-04-14T07:26:26.074Z,98638.09
2023-04-14T07:28:52.584Z,98639.22
2023-04-14T07:31:18.957Z,98639.97
2023-04-14T07:33:45.365Z,98643.78
2023-04-14T07:36:12.306Z,98646.94
2023-04-14T07:38:38.682Z,98635.16
2023-04-14T07:41:07.333Z,98628.16
2023-04-14T07:43:37.219Z,98631.41
2023-04-14T07:46:08.571Z,98633.25
2023-04-14T07:48:36.659Z,98638.31
2023-04-14T07:51:04.279Z,98631.28
2023-04-14T07:53:32.031Z,98630.72
2023-04-14T07:55:59.484Z,98630.88
2023-04-14T07:58:27.842Z,98624.53
2023-04-14T08:00:55.532Z,98619.72
2023-04-14T08:03:22.117Z,98617.47
2023-04-14T08:05:48.690Z,98619.69
2023-04-14T08:08:15.633Z,98606.59
2023-04-14T08:10:42.574Z,98611.78
2023-04-14T08:13:09.383Z,98608.41
2023-04-14T08:15:35.916Z,98603.41
2023-04-14T08:18:02.921Z,98602.56
2023-04-14T08:20:29.618Z,98595.09
2023-04-14T08:22:56.940Z,98600.41
2023-04-14T08:25:23.696Z,98604.03
2023-04-14T08:27:50.225Z,98596.81
2023-04-14T08:30:16.590Z,98600.28
2023-04-14T08:32:43.069Z,98593.19
2023-04-14T08:35:35.246Z,98590.69
2023-04-14T08:37:56.454Z,98592.72
2023-04-14T08:40:27.305Z,98588.03
2023-04-14T08:42:53.675Z,98587.25
2023-04-14T08:45:20.282Z,98593.13
2023-04-14T08:47:53.059Z,98594.91
2023-04-14T08:50:25.000Z,98588.94
2023-04-14T08:52:56.285Z,98589.84
2023-04-14T08:55:25.094Z,98580.34
2023-04-14T08:57:52.102Z,98573.44
2023-04-14T09:00:19.461Z,98575.47
2023-04-14T09:02:47.107Z,98571.53
2023-04-14T09:05:14.601Z,98572.69
2023-04-14T09:07:42.677Z,98568.03
2023-04-14T09:10:11.153Z,98570.09
2023-04-14T09:12:41.590Z,98564.84
2023-04-14T09:15:09.128Z,98562.25
2023-04-14T09:17:36.573Z,98560.56
2023-04-14T09:20:36.794Z,98561.75
2023-04-14T09:22:50.860Z,98555.25
2023-04-14T09:25:18.597Z,98548.91
2023-04-14T09:27:45.793Z,98552.25
2023-04-14T09:30:12.616Z,98551.09
2023-04-14T09:32:40.290Z,98555.47
2023-04-14T09:35:07.730Z,98552.25
2023-04-14T09:37:44.720Z,98552.44
2023-04-14T09:40:26.368Z,98546.22
2023-04-14T09:42:54.070Z,98542.19
2023-04-14T09:45:20.451Z,98536.13
2023-04-14T09:47:47.104Z,98532.06
2023-04-14T09:50:13.926Z,98526.84
2023-04-14T09:52:44.856Z,98526.63
2023-04-14T09:55:13.399Z,98524.88
2023-04-14T09:57:44.322Z,98521.38
2023-04-14T10:00:18.067Z,98517.19
2023-04-14T10:02:56.114Z,98514.38
2023-04-14T10:05:34.530Z,98509.81
2023-04-14T10:08:05.467Z,98508.28
2023-04-14T10:10:32.856Z,98514.69
2023-04-14T10:13:00.423Z,98508.63
2023-04-14T10:15:27.682Z,98504.91
2023-04-14T10:17:54.296Z,98493.03
2023-04-14T10:20:21.007Z,98495.25
2023-04-14T10:22:48.184Z,98480.38
2023-04-14T10:25:15.548Z,98473.09
2023-04-14T10:27:43.041Z,98478.88
2023-04-14T10:30:09.995Z,98477.50
2023-04-14T10:32:37.487Z,98475.53
2023-04-14T10:35:06.446Z,98480.09
2023-04-14T10:37:33.427Z,98472.81
2023-04-14T10:40:01.912Z,98470.31
2023-04-14T10:42:32.755Z,98475.16
2023-04-14T10:45:05.622Z,98460.16
2023-04-14T10:47:32.667Z,98462.59
2023-04-14T10:50:04.228Z,98458.63
2023-04-14T10:52:31.722Z,98453.22
2023-04-14T10:55:08.301Z,98450.16
2023-04-14T10:57:45.733Z,98440.25
2023-04-14T11:00:24.647Z,98441.31
2023-04-14T11:03:07.684Z,98440.88
2023-04-14T11:05:35.571Z,98436.88
2023-04-14T11:08:13.675Z,98430.78
2023-04-14T11:10:41.645Z,98425.91
2023-04-14T11:13:12.041Z,98418.28
2023-04-14T11:16:08.117Z,98418.53
2023-04-14T11:18:44.794Z,98418.94
2023-04-14T11:21:14.504Z,98424.91
2023-04-14T11:23:41.883Z,98421.38
2023-04-14T11:26:10.477Z,98421.63
2023-04-14T11:28:38.824Z,98413.19
2023-04-14T11:31:08.457Z,98412.09
2023-04-14T11:33:40.008Z,98410.03
2023-04-14T11:36:09.333Z,98409.41
2023-04-14T11:38:40.188Z,98404.91
2023-04-14T11:41:07.674Z,98409.84
2023-04-14T11:43:34.905Z,98390.50
2023-04-14T11:46:05.523Z,98397.81
2023-04-14T11:48:32.579Z,98393.47
2023-04-14T11:51:03.122Z,98398.13
2023-04-14T11:53:29.645Z,98388.88
2023-04-14T11:55:57.421Z,98390.34
2023-04-14T11:58:27.070Z,98388.94
2023-04-14T12:00:56.073Z,98382.91
2023-04-14T12:03:27.846Z,98381.47
2023-04-14T12:06:00.881Z,98378.75
2023-04-14T12:08:30.473Z,98370.22
2023-04-14T12:10:57.687Z,98374.13
2023-04-14T12:13:26.261Z,98376.22
2023-04-14T12:15:54.281Z,98366.63
2023-04-14T12:18:21.520Z,98368.47
2023-04-14T12:20:52.326Z,98366.22
2023-04-14T12:23:19.076Z,98360.41
2023-04-14T12:25:48.705Z,98358.75
2023-04-14T12:28:28.934Z,98360.59
2023-04-14T12:31:03.924Z,98359.09
2023-04-14T12:33:31.379Z,98356.78
2023-04-14T12:36:09.756Z,98360.31
2023-04-14T12:38:36.207Z,98348.59
2023-04-14T12:41:02.796Z,98344.97
2023-04-14T12:43:30.359Z,98348.75
2023-04-14T12:45:58.138Z,98345.59
2023-04-14T12:48:48.160Z,98353.03
2023-04-14T12:51:16.419Z,98348.47
2023-04-14T12:53:44.531Z,98348.88
2023-04-14T12:56:23.933Z,98344.34
2023-04-14T12:58:51.726Z,98342.22
2023-04-14T13:01:21.601Z,98340.53
2023-04-14T13:03:52.220Z,98324.75
2023-04-14T13:06:20.860Z,98316.59
2023-04-14T13:08:51.324Z,98317.63
2023-04-14T13:11:19.991Z,98320.38
2023-04-14T13:13:47.175Z,98320.72
2023-04-14T13:16:16.303Z,98320.09
2023-04-14T13:18:47.320Z,98318.25
2023-04-14T13:21:16.021Z,98311.84
2023-04-14T13:23:42.589Z,98318.72
2023-04-14T13:26:09.445Z,98310.81
2023-04-14T13:28:36.724Z,98307.91
2023-04-14T13:31:03.215Z,98303.50
2023-04-14T13:33:29.688Z,98297.91
2023-04-14T13:35:56.398Z,98300.16
2023-04-14T13:38:23.333Z,98298.53
2023-04-14T13:40:49.767Z,98292.03
2023-04-14T13:43:21.420Z,98294.13
2023-04-14T13:45:47.836Z,98305.19
2023-04-14T13:48:14.778Z,98291.81
2023-04-14T13:50:41.444Z,98296.16
2023-04-14T13:53:07.971Z,98298.97
2023-04-14T13:55:35.839Z,98299.56
2023-04-14T13:58:02.198Z,98297.09
2023-04-14T14:00:28.650Z,98292.09
2023-04-14T14:02:55.620Z,98293.34
2023-04-14T14:05:22.483Z,98289.16
2023-04-14T14:07:48.881Z,98290.88
2023-04-14T14:10:15.341Z,98280.56
2023-04-14T14:12:41.734Z,98277.84
2023-04-14T14:15:08.678Z,98277.13
2023-04-14T14:17:36.591Z,98269.38
2023-04-14T14:20:03.036Z,98275.03
2023-04-14T14:22:29.455Z,98279.63
2023-04-14T14:25:06.945Z,98273.34
2023-04-14T14:27:42.183Z,98271.50
2023-04-14T14:30:09.135Z,98276.03
2023-04-14T14:32:35.631Z,98265.72
2023-04-14T14:35:03.252Z,98259.81
2023-04-14T14:37:29.609Z,98260.31
2023-04-14T14:39:57.346Z,98265.78
2023-04-14T14:42:23.747Z,98271.94
2023-04-14T14:44:50.351Z,98265.25
2023-04-14T14:47:17.277Z,98254.63
2023-04-14T14:49:52.953Z,98258.84
2023-04-14T14:52:30.150Z,98262.78
2023-04-14T14:54:56.928Z,98258.22
2023-04-14T14:57:23.598Z,98254.81
2023-04-14T14:59:49.948Z,98253.53
2023-04-14T15:02:17.115Z,98255.06
2023-04-14T15:04:43.727Z,98239.66
2023-04-14T15:07:10.254Z,98243.81
2023-04-14T15:09:37.201Z,98245.59
2023-04-14T15:12:04.097Z,98237.38
2023-04-14T15:14:30.469Z,98252.94
2023-04-14T15:16:57.714Z,98236.72
2023-04-14T15:19:24.889Z,98244.63
2023-04-14T15:21:51.585Z,98247.44
2023-04-14T15:24:17.979Z,98239.59
2023-04-14T15:26:44.369Z,98246.00
2023-04-14T15:29:10.987Z,98242.44
2023-04-14T15:31:37.395Z,98246.09
2023-04-14T15:34:04.428Z,98239.94
2023-04-14T15:36:33.976Z,98240.75
2023-04-14T15:39:01.045Z,98241.56
2023-04-14T15:41:27.475Z,98238.63
2023-04-14T15:43:53.997Z,98245.25
2023-04-14T15:46:20.625Z,98238.06
2023-04-14T15:48:47.093Z,98243.50
2023-04-14T15:51:13.577Z,98244.41
2023-04-14T15:53:40.146Z,98239.38
2023-04-14T15:56:06.729Z,98241.34
2023-04-14T15:58:34.128Z,98229.53
2023-04-14T16:01:01.131Z,98232.13
2023-04-14T16:03:28.068Z,98235.09
2023-04-14T16:06:02.473Z,98227.09
2023-04-14T16:08:29.169Z,98230.78
2023-04-14T16:10:55.900Z,98240.47
2023-04-14T16:13:22.275Z,98233.00
2023-04-14T16:15:48.694Z,98233.16
2023-04-14T16:18:15.359Z,98232.13
2023-04-14T16:20:41.843Z,98231.88
2023-04-14T16:23:08.208Z,98226.50
2023-04-14T16:25:34.752Z,98237.28
2023-04-14T16:28:01.188Z,98232.28
2023-04-14T16:30:27.614Z,98238.38
2023-04-14T16:32:54.169Z,98237.03
2023-04-14T16:35:20.613Z,98234.72
2023-04-14T16:37:46.933Z,98235.84
2023-04-14T16:40:13.341Z,98231.38
2023-04-14T16:42:39.863Z,98230.91
2023-04-14T16:45:07.828Z,98227.94
2023-04-14T16:47:34.280Z,98225.03
2023-04-14T16:50:01.179Z,98228.94
2023-04-14T16:52:29.824Z,98229.66
2023-04-14T16:54:56.215Z,98238.56
2023-04-14T16:57:23.061Z,98233.59
2023-04-14T16:59:49.376Z,98236.91
2023-04-14T17:02:16.029Z,98227.19
2023-04-14T17:04:42.831Z,98227.19
2023-04-14T17:07:09.433Z,98220.59
2023-04-14T17:09:35.934Z,98231.75
2023-04-14T17:12:02.328Z,98220.25
2023-04-14T17:14:28.755Z,98226.84
2023-04-14T17:16:55.274Z,98227.59
2023-04-14T17:19:21.942Z,98224.41
2023-04-14T17:21:49.883Z,98233.34
2023-04-14T17:24:16.316Z,98232.72
2023-04-14T17:26:44.141Z,98230.44
2023-04-14T17:29:10.921Z,98232.13
2023-04-14T17:31:37.437Z,98234.97
2023-04-14T17:34:07.505Z,98231.81
2023-04-14T17:36:33.891Z,98234.47
2023-04-14T17:39:00.746Z,98239.22
2023-04-14T17:41:28.347Z,98246.94
2023-04-14T17:43:54.999Z,98246.31
2023-04-14T17:46:23.534Z,98253.44
2023-04-14T17:48:50.456Z,98258.06
2023-04-14T17:51:17.089Z,98251.16
2023-04-14T17:53:43.520Z,98251.84
2023-04-14T17:56:11.245Z,98252.72
2023-04-14T17:58:37.672Z,98254.44
2023-04-14T18:01:04.419Z,98249.41
2023-04-14T18:03:30.936Z,98257.38
2023-04-14T18:05:57.943Z,98250.50
2023-04-14T18:08:24.610Z,98259.59
2023-04-14T18:10:51.113Z,98260.13
2023-04-14T18:13:18.124Z,98260.97
2023-04-14T18:15:44.880Z,98254.41
2023-04-14T18:18:12.035Z,98260.06
2023-04-14T18:20:38.424Z,98271.13
2023-04-14T18:23:05.877Z,98269.56
2023-04-14T18:28:03.061Z,98271.41
2023-04-14T18:30:30.366Z,98278.81
2023-04-14T18:32:56.843Z,98279.84
2023-04-14T18:35:23.684Z,98279.00
2023-04-14T18:37:50.256Z,98286.72
2023-04-14T18:40:16.872Z,98288.06
2023-04-14T18:42:43.207Z,98295.56
2023-04-14T18:45:10.094Z,98304.25
2023-04-14T18:47:36.834Z,98303.56
2023-04-14T18:50:04.259Z,98304.88
2023-04-14T18:52:31.047Z,98303.53
2023-04-14T18:54:57.493Z,98309.34
2023-04-14T18:57:24.201Z,98313.59
2023-04-14T18:59:50.574Z,98316.31
2023-04-14T19:02:17.373Z,98313.22
2023-04-14T19:04:46.556Z,98310.03
2023-04-14T19:07:13.387Z,98317.78
2023-04-14T19:09:40.045Z,98322.53
2023-04-14T19:12:12.821Z,98333.16
2023-04-14T19:14:49.245Z,98334.78
2023-04-14T19:17:15.974Z,98328.66
2023-04-14T19:19:42.546Z,98329.56
2023-04-14T19:22:09.151Z,98335.53
2023-04-14T19:24:35.942Z,98334.31
2023-04-14T19:27:04.570Z,98338.56
2023-04-14T19:29:31.206Z,98341.16
2023-04-14T19:31:57.913Z,98338.63
2023-04-14T19:34:24.408Z,98349.06
2023-04-14T19:36:51.404Z,98343.47
2023-04-14T19:39:20.077Z,98346.19
2023-04-14T19:41:47.193Z,98342.16
2023-04-14T19:44:14.583Z,98343.75
2023-04-14T19:46:42.112Z,98343.09
2023-04-14T19:49:11.164Z,98350.69
2023-04-14T19:51:37.868Z,98351.41
2023-04-14T19:54:05.410Z,98349.34
2023-04-14T19:56:32.751Z,98352.44
2023-04-14T19:58:59.493Z,98349.34
2023-04-14T20:01:26.131Z,98354.16
2023-04-14T20:04:05.701Z,98346.00
2023-04-14T20:06:39.224Z,98354.44
2023-04-14T20:09:06.775Z,98353.34
2023-04-14T20:11:33.207Z,98353.66
2023-04-14T20:13:59.552Z,98362.47
2023-04-14T20:16:26.621Z,98365.00
2023-04-14T20:18:53.147Z,98355.63
2023-04-14T20:21:19.550Z,98360.97
2023-04-14T20:23:46.091Z,98365.47
2023-04-14T20:26:13.383Z,98372.19
2023-04-14T20:28:40.315Z,98372.72
2023-04-14T20:31:06.784Z,98364.28
2023-04-14T20:33:33.731Z,98371.59
2023-04-14T20:36:01.942Z,98372.97
2023-04-14T20:38:29.127Z,98374.78
2023-04-14T20:40:55.681Z,98375.19
2023-04-14T20:43:22.240Z,98368.78
2023-04-14T20:45:49.704Z,98371.00
2023-04-14T20:48:16.413Z,98373.66
2023-04-14T20:50:44.306Z,98372.41
2023-04-14T20:53:11.241Z,98368.78
2023-04-14T20:55:37.734Z,98373.97
2023-04-14T20:58:04.250Z,98381.09
2023-04-14T21:00:32.494Z,98377.31
2023-04-14T21:03:00.904Z,98378.16
2023-04-14T21:05:27.667Z,98385.03
2023-04-14T21:07:53.995Z,98382.47
2023-04-14T21:10:20.878Z,98379.09
2023-04-14T21:13:47.762Z,98377.81
2023-04-14T21:15:53.120Z,98385.25
2023-04-14T21:18:20.361Z,98382.28
2023-04-14T21:20:46.961Z,98380.00
2023-04-14T21:23:13.324Z,98384.72
2023-04-14T21:25:39.746Z,98383.28
2023-04-14T21:28:06.156Z,98385.22
2023-04-14T21:30:32.756Z,98384.28
2023-04-14T21:32:59.286Z,98385.66
2023-04-14T21:35:25.901Z,98382.38
2023-04-14T21:37:52.322Z,98390.78
2023-04-14T21:40:19.043Z,98387.69
2023-04-14T21:42:46.170Z,98385.84
2023-04-14T21:45:12.599Z,98386.97
2023-04-14T21:47:39.125Z,98391.44
2023-04-14T21:50:07.548Z,98391.28
2023-04-14T21:52:34.426Z,98389.00
2023-04-14T21:55:00.998Z,98390.09
2023-04-14T21:57:42.775Z,98390.63
2023-04-14T22:00:17.224Z,98389.75
2023-04-14T22:02:44.978Z,98390.19
2023-04-14T22:05:11.907Z,98396.06
2023-04-14T22:07:38.640Z,98382.78
2023-04-14T22:10:07.001Z,98381.94
2023-04-14T22:12:37.594Z,98381.78
2023-04-14T22:15:04.724Z,98389.06
2023-04-14T22:17:31.254Z,98380.75
2023-04-14T22:19:59.074Z,98382.97
2023-04-14T22:22:25.916Z,98389.53
2023-04-14T22:24:54.538Z,98384.72
2023-04-14T22:27:21.043Z,98380.50
2023-04-14T22:29:47.791Z,98389.44
2023-04-14T22:32:15.800Z,98384.25
2023-04-14T22:34:42.320Z,98387.69
2023-04-14T22:37:08.922Z,98396.81
2023-04-14T22:39:35.235Z,98390.09
2023-04-14T22:42:02.277Z,98397.31
2023-04-14T22:44:28.637Z,98394.16
2023-04-14T22:46:55.127Z,98403.03
2023-04-14T22:49:21.810Z,98396.38
2023-04-14T22:51:48.222Z,98405.69
2023-04-14T22:54:14.606Z,98404.50
2023-04-14T22:56:41.015Z,98404.75
2023-04-14T22:59:07.369Z,98412.84
2023-04-14T23:01:33.711Z,98414.78
2023-04-14T23:04:00.757Z,98412.47
2023-04-14T23:06:27.247Z,98414.44
2023-04-14T23:08:54.084Z,98411.91
2023-04-14T23:11:21.181Z,98407.66
2023-04-14T23:13:48.728Z,98407.66
2023-04-14T23:16:19.384Z,98410.72
2023-04-14T23:18:51.606Z,98406.59
2023-04-14T23:21:25.080Z,98409.38
2023-04-14T23:23:51.636Z,98408.53
2023-04-14T23:26:19.635Z,98413.97
2023-04-14T23:28:46.273Z,98413.13
2023-04-14T23:31:13.106Z,98410.84
2023-04-14T23:33:40.063Z,98412.78
2023-04-14T23:36:06.894Z,98414.00
2023-04-14T23:38:33.483Z,98416.91
2023-04-14T23:41:00.276Z,98419.91
2023-04-14T23:43:29.811Z,98420.53
2023-04-14T23:45:56.577Z,98417.13
2023-04-14T23:48:23.010Z,98422.09
2023-04-14T23:51:00.376Z,98420.75
2023-04-14T23:53:36.017Z,98422.69
2023-04-14T23:56:04.117Z,98416.19
2023-04-14T23:58:30.807Z,98415.59
